Time;durP1;ratioP1;P1;durP2;ratioP2;P2;SDS_P1;SDS_P2;PMS_P1;PMS_P2;Temp;Humidity;BMP_temperature;BMP_pressure;BME280_temperature;BME280_humidity;BME280_pressure;Samples;Min_cycle;Max_cycle;Signal;HPM_P1;HPM_P2
2022/04/05 00:02:25;;;;;;;11.18;2.70;;;;;;;;;;4977718;28;20043;-74
2022/04/05 00:04:51;;;;;;;11.73;2.75;;;;;;;;;;4976700;28;20054;-74
2022/04/05 00:07:17;;;;;;;13.50;3.05;;;;;;;;;;4980617;28;20042;-74
2022/04/05 00:09:43;;;;;;;7.53;2.40;;;;;;;;;;4994820;28;20042;-73
2022/04/05 00:12:09;;;;;;;7.80;2.30;;;;;;;;;;4988268;28;20516;-74
2022/04/05 00:14:35;;;;;;;6.10;2.35;;;;;;;;;;4996108;28;20050;-72
2022/04/05 00:17:02;;;;;;;10.18;2.33;;;;;;;;;;4958256;28;20129;-73
2022/04/05 00:19:28;;;;;;;9.63;2.55;;;;;;;;;;4966624;28;20050;-73
2022/04/05 00:21:54;;;;;;;7.18;2.15;;;;;;;;;;4993030;28;20051;-73
2022/04/05 00:24:21;;;;;;;6.25;2.17;;;;;;;;;;4984943;28;20039;-73
2022/04/05 00:26:47;;;;;;;6.25;2.20;;;;;;;;;;4981052;28;20470;-74
2022/04/05 00:29:13;;;;;;;9.25;2.30;;;;;;;;;;4973779;28;20485;-74
2022/04/05 00:31:39;;;;;;;7.47;2.35;;;;;;;;;;4991898;28;20042;-74
2022/04/05 00:34:05;;;;;;;5.50;1.95;;;;;;;;;;4978142;28;20050;-73
2022/04/05 00:36:32;;;;;;;9.65;2.70;;;;;;;;;;4992641;28;20050;-75
2022/04/05 00:38:58;;;;;;;7.35;2.30;;;;;;;;;;4973746;28;20068;-74
2022/04/05 00:41:23;;;;;;;7.07;2.15;;;;;;;;;;4987397;28;20046;-74
2022/04/05 00:43:49;;;;;;;5.85;1.90;;;;;;;;;;4986879;28;20043;-74
2022/04/05 00:46:15;;;;;;;8.02;2.00;;;;;;;;;;4973933;28;20141;-74
2022/04/05 00:48:50;;;;;;;6.07;1.80;;;;;;;;;;4968985;28;20055;-74
2022/04/05 00:51:17;;;;;;;5.65;2.00;;;;;;;;;;4983261;28;20050;-74
2022/04/05 00:53:48;;;;;;;7.53;2.00;;;;;;;;;;4945181;28;20055;-74
2022/04/05 00:56:15;;;;;;;8.55;2.10;;;;;;;;;;4978781;28;20039;-74
2022/04/05 00:58:42;;;;;;;11.02;2.50;;;;;;;;;;4985565;28;20113;-74
2022/04/05 01:01:09;;;;;;;8.73;1.83;;;;;;;;;;4988996;28;20116;-74
2022/04/05 01:03:36;;;;;;;7.30;2.05;;;;;;;;;;4985648;28;20417;-74
2022/04/05 01:06:04;;;;;;;4.00;1.48;;;;;;;;;;4974923;28;20197;-74
2022/04/05 01:08:30;;;;;;;5.22;1.80;;;;;;;;;;4979673;28;20054;-74
2022/04/05 01:10:57;;;;;;;5.47;1.85;;;;;;;;;;4975033;28;20043;-74
2022/04/05 01:13:23;;;;;;;6.43;1.70;;;;;;;;;;4982778;28;20620;-74
2022/04/05 01:15:50;;;;;;;7.22;1.60;;;;;;;;;;4973326;28;20062;-73
2022/04/05 01:18:17;;;;;;;10.30;2.25;;;;;;;;;;4992775;28;20050;-74
2022/04/05 01:20:43;;;;;;;6.00;1.30;;;;;;;;;;4987977;28;20043;-74
2022/04/05 01:23:09;;;;;;;6.78;2.05;;;;;;;;;;4984308;28;20051;-73
2022/04/05 01:25:35;;;;;;;9.38;1.92;;;;;;;;;;4989448;28;20128;-74
2022/04/05 01:28:02;;;;;;;8.65;1.40;;;;;;;;;;4974037;28;20120;-74
2022/04/05 01:30:27;;;;;;;7.60;1.60;;;;;;;;;;4984005;28;20046;-74
2022/04/05 01:32:57;;;;;;;8.15;2.00;;;;;;;;;;4970021;28;20529;-74
2022/04/05 01:35:23;;;;;;;6.50;1.52;;;;;;;;;;4948050;28;20039;-74
2022/04/05 01:37:49;;;;;;;3.72;1.25;;;;;;;;;;4974770;28;20047;-73
2022/04/05 01:40:15;;;;;;;4.07;1.50;;;;;;;;;;4957045;28;20043;-74
2022/04/05 01:42:41;;;;;;;5.80;1.58;;;;;;;;;;4987603;28;20046;-75
2022/04/05 01:45:07;;;;;;;8.57;1.50;;;;;;;;;;4990930;28;20057;-75
2022/04/05 01:47:33;;;;;;;4.82;1.30;;;;;;;;;;4983298;28;20063;-75
2022/04/05 01:49:59;;;;;;;7.75;1.83;;;;;;;;;;4979913;28;20405;-75
2022/04/05 01:52:25;;;;;;;10.45;1.60;;;;;;;;;;4994217;28;20042;-75
2022/04/05 01:54:51;;;;;;;8.55;1.65;;;;;;;;;;4972747;28;20049;-75
2022/04/05 01:57:17;;;;;;;5.47;1.50;;;;;;;;;;4984935;28;20042;-75
2022/04/05 01:59:44;;;;;;;6.65;1.58;;;;;;;;;;4991211;28;20193;-75
2022/04/05 02:02:10;;;;;;;4.60;1.50;;;;;;;;;;4978491;28;20052;-76
2022/04/05 02:04:37;;;;;;;8.55;1.52;;;;;;;;;;4965285;28;20051;-75
2022/04/05 02:07:10;;;;;;;7.90;1.75;;;;;;;;;;4986733;28;20039;-75
2022/04/05 02:09:36;;;;;;;5.82;1.80;;;;;;;;;;4970008;28;20055;-74
2022/04/05 02:12:03;;;;;;;6.60;1.60;;;;;;;;;;4983437;28;20046;-75
2022/04/05 02:14:29;;;;;;;5.63;1.70;;;;;;;;;;4986028;28;20082;-75
2022/04/05 02:16:58;;;;;;;;;;;;;;;;;;4980665;28;20047;-76
2022/04/05 02:19:24;;;;;;;7.32;2.17;;;;;;;;;;4978554;28;20398;-75
2022/04/05 02:21:50;;;;;;;9.55;1.70;;;;;;;;;;4956099;28;20039;-75
2022/04/05 02:24:16;;;;;;;5.30;1.50;;;;;;;;;;4981570;28;20476;-75
2022/04/05 02:26:43;;;;;;;9.18;1.80;;;;;;;;;;4984062;28;20039;-75
2022/04/05 02:29:09;;;;;;;9.10;1.38;;;;;;;;;;4956898;28;20405;-75
2022/04/05 02:31:35;;;;;;;5.72;1.70;;;;;;;;;;4975695;28;20054;-75
2022/04/05 02:34:01;;;;;;;8.18;1.75;;;;;;;;;;4982483;28;20096;-75
2022/04/05 02:36:27;;;;;;;5.45;1.55;;;;;;;;;;4974411;28;20567;-75
2022/04/05 02:38:53;;;;;;;4.32;1.20;;;;;;;;;;4993604;28;20408;-75
2022/04/05 02:41:19;;;;;;;7.13;1.90;;;;;;;;;;4992135;28;20046;-75
2022/04/05 02:43:45;;;;;;;3.30;1.33;;;;;;;;;;4968981;28;20054;-75
2022/04/05 02:46:11;;;;;;;7.75;1.88;;;;;;;;;;4971448;28;20130;-75
2022/04/05 02:48:43;;;;;;;6.32;1.30;;;;;;;;;;4982437;28;20101;-75
2022/04/05 02:51:16;;;;;;;5.95;1.83;;;;;;;;;;4985508;28;20485;-75
2022/04/05 02:53:42;;;;;;;6.22;1.75;;;;;;;;;;4974086;28;20528;-75
2022/04/05 02:56:09;;;;;;;6.47;1.60;;;;;;;;;;4974248;28;20043;-75
2022/04/05 02:58:38;;;;;;;6.72;1.50;;;;;;;;;;4985782;28;20039;-75
2022/04/05 03:01:05;;;;;;;7.20;1.80;;;;;;;;;;4984136;28;20039;-75
2022/04/05 03:03:32;;;;;;;5.43;1.65;;;;;;;;;;4960743;28;20045;-74
2022/04/05 03:05:58;;;;;;;6.35;1.70;;;;;;;;;;4985743;28;20050;-73
2022/04/05 03:08:24;;;;;;;11.02;2.40;;;;;;;;;;4996762;28;20042;-75
2022/04/05 03:10:51;;;;;;;9.32;1.98;;;;;;;;;;4994269;28;20453;-75
2022/04/05 03:13:17;;;;;;;5.60;1.75;;;;;;;;;;4975913;28;20054;-75
2022/04/05 03:15:43;;;;;;;9.20;2.20;;;;;;;;;;4985000;28;20046;-75
2022/04/05 03:18:09;;;;;;;5.28;1.65;;;;;;;;;;4981721;28;20043;-75
2022/04/05 03:20:35;;;;;;;7.53;1.83;;;;;;;;;;4995472;28;20041;-75
2022/04/05 03:23:01;;;;;;;12.10;2.10;;;;;;;;;;4975548;28;20047;-75
2022/04/05 03:25:27;;;;;;;10.57;1.70;;;;;;;;;;4969481;28;20049;-75
2022/04/05 03:27:53;;;;;;;11.48;2.20;;;;;;;;;;4991199;28;20042;-76
2022/04/05 03:30:20;;;;;;;9.73;2.08;;;;;;;;;;4981429;28;20139;-75
2022/04/05 03:32:46;;;;;;;7.22;2.15;;;;;;;;;;4959175;28;20105;-76
2022/04/05 03:35:12;;;;;;;5.07;1.90;;;;;;;;;;4989360;28;20038;-75
2022/04/05 03:37:38;;;;;;;5.15;1.50;;;;;;;;;;4990247;28;20378;-76
2022/04/05 03:40:05;;;;;;;6.82;1.73;;;;;;;;;;4996405;28;20042;-76
2022/04/05 03:42:31;;;;;;;7.95;1.60;;;;;;;;;;4958835;28;20050;-76
2022/04/05 03:44:57;;;;;;;5.30;1.67;;;;;;;;;;4983896;28;20101;-75
2022/04/05 03:47:24;;;;;;;7.03;1.85;;;;;;;;;;4971851;28;20050;-75
2022/04/05 03:49:50;;;;;;;7.90;1.80;;;;;;;;;;4995371;28;20088;-75
2022/04/05 03:52:16;;;;;;;10.85;1.98;;;;;;;;;;4985299;28;20055;-75
2022/04/05 03:54:42;;;;;;;8.93;2.20;;;;;;;;;;4975673;28;20136;-75
2022/04/05 03:57:08;;;;;;;6.95;1.77;;;;;;;;;;4985144;28;20070;-74
2022/04/05 03:59:34;;;;;;;7.55;1.70;;;;;;;;;;4988162;28;20097;-75
2022/04/05 04:02:00;;;;;;;7.57;1.90;;;;;;;;;;4974593;28;20101;-75
2022/04/05 04:04:26;;;;;;;12.82;2.95;;;;;;;;;;4978264;28;20404;-75
2022/04/05 04:06:52;;;;;;;6.47;2.10;;;;;;;;;;4975722;28;20042;-75
2022/04/05 04:09:18;;;;;;;8.90;2.75;;;;;;;;;;4990808;28;20043;-75
2022/04/05 04:11:45;;;;;;;9.10;2.55;;;;;;;;;;4963430;28;20046;-75
2022/04/05 04:14:11;;;;;;;9.13;2.17;;;;;;;;;;4994340;28;20054;-75
2022/04/05 04:16:37;;;;;;;11.15;2.33;;;;;;;;;;4977468;28;20058;-74
2022/04/05 04:19:03;;;;;;;5.63;2.20;;;;;;;;;;4995603;28;20081;-74
2022/04/05 04:21:29;;;;;;;8.63;2.13;;;;;;;;;;4976492;28;20047;-74
2022/04/05 04:23:56;;;;;;;10.32;2.45;;;;;;;;;;4994073;28;20118;-75
2022/04/05 04:26:22;;;;;;;12.80;2.38;;;;;;;;;;4977306;28;20049;-74
2022/04/05 04:28:51;;;;;;;10.70;3.30;;;;;;;;;;4995016;28;20081;-74
2022/04/05 04:31:17;;;;;;;;;;;;;;;;;;4977763;28;20501;-74
2022/04/05 04:33:43;;;;;;;9.93;2.80;;;;;;;;;;4974287;28;19928;-74
2022/04/05 04:36:09;;;;;;;12.80;2.75;;;;;;;;;;4975522;28;20093;-73
2022/04/05 04:38:35;;;;;;;9.55;3.03;;;;;;;;;;4972104;28;20053;-74
2022/04/05 04:41:01;;;;;;;10.00;3.00;;;;;;;;;;4965623;28;20046;-74
2022/04/05 04:43:27;;;;;;;11.45;2.80;;;;;;;;;;4986583;28;20057;-73
2022/04/05 04:45:54;;;;;;;9.65;2.90;;;;;;;;;;4987886;28;20050;-74
2022/04/05 04:48:20;;;;;;;11.32;3.17;;;;;;;;;;4992027;28;20061;-74
2022/04/05 04:50:47;;;;;;;13.93;3.03;;;;;;;;;;4974980;28;20149;-74
2022/04/05 04:53:13;;;;;;;9.57;3.40;;;;;;;;;;4975165;28;20090;-74
2022/04/05 04:55:39;;;;;;;23.75;4.45;;;;;;;;;;4942547;28;20045;-73
2022/04/05 04:58:05;;;;;;;15.63;3.90;;;;;;;;;;4972082;28;20046;-74
2022/04/05 05:00:31;;;;;;;24.02;6.18;;;;;;;;;;4969980;28;20050;-74
2022/04/05 05:02:57;;;;;;;24.55;5.47;;;;;;;;;;4959082;28;20051;-73
2022/04/05 05:05:23;;;;;;;14.05;4.10;;;;;;;;;;4984056;28;20444;-73
2022/04/05 05:07:50;;;;;;;22.40;5.85;;;;;;;;;;4974845;28;20089;-74
2022/04/05 05:10:17;;;;;;;17.40;4.15;;;;;;;;;;4979368;28;20053;-74
2022/04/05 05:12:43;;;;;;;15.05;4.38;;;;;;;;;;4978208;28;20046;-74
2022/04/05 05:15:10;;;;;;;11.32;4.72;;;;;;;;;;4983421;28;20046;-73
2022/04/05 05:17:36;;;;;;;11.60;4.60;;;;;;;;;;4977038;28;20050;-74
2022/04/05 05:20:06;;;;;;;16.15;4.72;;;;;;;;;;4973246;28;20043;-74
2022/04/05 05:22:32;;;;;;;16.80;4.65;;;;;;;;;;4979888;28;20126;-74
2022/04/05 05:24:58;;;;;;;17.52;5.28;;;;;;;;;;4994026;28;20391;-74
2022/04/05 05:27:24;;;;;;;16.48;4.85;;;;;;;;;;4973828;28;20502;-73
2022/04/05 05:29:50;;;;;;;11.77;4.20;;;;;;;;;;4989334;28;20042;-73
2022/04/05 05:32:17;;;;;;;12.25;5.15;;;;;;;;;;4986405;28;20050;-73
2022/04/05 05:34:43;;;;;;;13.27;4.95;;;;;;;;;;4990960;28;20512;-73
2022/04/05 05:37:09;;;;;;;15.73;4.95;;;;;;;;;;4959500;28;20054;-73
2022/04/05 05:39:39;;;;;;;19.63;5.20;;;;;;;;;;4976238;28;20049;-74
2022/04/05 05:42:06;;;;;;;14.82;5.03;;;;;;;;;;4989772;28;20050;-74
2022/04/05 05:44:32;;;;;;;19.30;5.47;;;;;;;;;;4988549;28;20129;-74
2022/04/05 05:46:58;;;;;;;21.38;6.72;;;;;;;;;;4972642;28;20471;-74
2022/04/05 05:49:24;;;;;;;15.10;5.10;;;;;;;;;;4968614;28;20132;-74
2022/04/05 05:51:51;;;;;;;17.42;4.65;;;;;;;;;;4989189;28;20046;-73
2022/04/05 05:54:18;;;;;;;10.05;5.22;;;;;;;;;;4975296;28;20585;-74
2022/04/05 05:56:44;;;;;;;11.82;4.72;;;;;;;;;;4976965;28;20042;-74
2022/04/05 05:59:10;;;;;;;18.55;5.32;;;;;;;;;;4986112;28;20101;-74
2022/04/05 06:01:37;;;;;;;15.35;4.45;;;;;;;;;;4988320;28;20117;-74
2022/04/05 06:04:04;;;;;;;12.50;4.80;;;;;;;;;;4984796;28;20046;-73
2022/04/05 06:06:30;;;;;;;12.23;4.93;;;;;;;;;;4993007;28;20097;-74
2022/04/05 06:08:56;;;;;;;12.25;4.80;;;;;;;;;;4981302;28;20050;-74
2022/04/05 06:11:22;;;;;;;15.05;4.47;;;;;;;;;;4987391;28;20074;-74
2022/04/05 06:13:49;;;;;;;19.77;5.10;;;;;;;;;;4957410;28;20054;-74
2022/04/05 06:16:15;;;;;;;15.30;5.38;;;;;;;;;;4982943;28;20082;-73
2022/04/05 06:18:42;;;;;;;35.17;6.88;;;;;;;;;;4991841;28;20480;-72
2022/04/05 06:21:08;;;;;;;12.00;4.20;;;;;;;;;;4941298;28;20086;-74
2022/04/05 06:23:34;;;;;;;15.63;4.30;;;;;;;;;;4959915;28;20104;-73
2022/04/05 06:26:00;;;;;;;12.77;4.15;;;;;;;;;;4983430;28;20042;-73
2022/04/05 06:28:26;;;;;;;14.23;4.15;;;;;;;;;;4977599;28;20046;-74
2022/04/05 06:30:53;;;;;;;11.40;3.97;;;;;;;;;;4980595;28;20508;-74
2022/04/05 06:33:20;;;;;;;9.00;3.28;;;;;;;;;;4960549;28;20054;-74
2022/04/05 06:35:53;;;;;;;12.25;3.75;;;;;;;;;;4977017;28;20148;-74
2022/04/05 06:38:19;;;;;;;11.98;3.40;;;;;;;;;;4979771;28;20485;-75
2022/04/05 06:40:45;;;;;;;9.40;3.38;;;;;;;;;;4990497;28;20067;-74
2022/04/05 06:43:13;;;;;;;10.75;3.25;;;;;;;;;;4980092;28;20066;-74
2022/04/05 06:45:39;;;;;;;9.52;2.78;;;;;;;;;;4972420;28;20051;-74
2022/04/05 06:48:06;;;;;;;10.93;3.38;;;;;;;;;;4981893;28;20062;-75
2022/04/05 06:50:36;;;;;;;9.98;2.83;;;;;;;;;;4979211;28;20056;-75
2022/04/05 06:53:03;;;;;;;14.48;3.63;;;;;;;;;;4976783;28;20050;-75
2022/04/05 06:55:29;;;;;;;7.90;2.80;;;;;;;;;;4977685;28;20050;-74
2022/04/05 06:57:55;;;;;;;8.20;2.45;;;;;;;;;;4977689;28;20082;-75
2022/04/05 07:00:23;;;;;;;10.60;3.35;;;;;;;;;;4983287;28;20050;-74
2022/04/05 07:02:50;;;;;;;7.50;2.55;;;;;;;;;;4976525;28;20101;-75
2022/04/05 07:05:16;;;;;;;7.07;2.10;;;;;;;;;;4979904;28;20053;-75
2022/04/05 07:07:42;;;;;;;7.93;2.30;;;;;;;;;;4976416;28;20051;-75
2022/04/05 07:10:09;;;;;;;8.05;2.00;;;;;;;;;;4960018;28;20090;-75
2022/04/05 07:12:35;;;;;;;6.78;2.17;;;;;;;;;;4972617;28;20043;-74
2022/04/05 07:15:01;;;;;;;8.88;2.28;;;;;;;;;;4966984;28;20436;-76
2022/04/05 07:17:27;;;;;;;7.57;2.10;;;;;;;;;;4977307;28;20497;-75
2022/04/05 07:19:53;;;;;;;5.53;1.50;;;;;;;;;;4973398;28;20042;-75
2022/04/05 07:22:19;;;;;;;8.68;1.90;;;;;;;;;;4989125;28;20114;-75
2022/04/05 07:24:46;;;;;;;7.78;1.95;;;;;;;;;;4990593;28;20521;-75
2022/04/05 07:27:12;;;;;;;7.10;1.58;;;;;;;;;;4988325;28;20092;-75
2022/04/05 07:29:38;;;;;;;8.52;2.17;;;;;;;;;;4987772;28;20393;-75
2022/04/05 07:32:04;;;;;;;5.65;1.13;;;;;;;;;;4984027;28;20038;-75
2022/04/05 07:34:30;;;;;;;7.00;1.60;;;;;;;;;;4986488;28;20045;-75
2022/04/05 07:36:56;;;;;;;5.63;1.67;;;;;;;;;;4969701;28;20404;-75
2022/04/05 07:39:23;;;;;;;6.03;1.90;;;;;;;;;;4972725;28;20042;-75
2022/04/05 07:41:49;;;;;;;3.20;1.23;;;;;;;;;;4988256;28;20042;-75
2022/04/05 07:44:15;;;;;;;5.75;1.50;;;;;;;;;;4969866;28;20510;-75
2022/04/05 07:46:41;;;;;;;13.45;2.70;;;;;;;;;;4970971;28;20038;-75
2022/04/05 07:49:07;;;;;;;6.55;1.38;;;;;;;;;;4965048;28;20117;-75
2022/04/05 07:51:33;;;;;;;5.35;1.30;;;;;;;;;;4985988;28;20046;-74
2022/04/05 07:53:59;;;;;;;3.80;1.55;;;;;;;;;;4988226;28;20499;-75
2022/04/05 07:56:25;;;;;;;5.88;1.58;;;;;;;;;;4984855;28;20049;-75
2022/04/05 07:58:51;;;;;;;3.95;1.25;;;;;;;;;;4973004;28;20042;-75
2022/04/05 08:01:18;;;;;;;5.00;1.30;;;;;;;;;;4986412;28;20039;-74
2022/04/05 08:03:44;;;;;;;4.55;1.50;;;;;;;;;;4985221;28;20046;-75
2022/04/05 08:06:10;;;;;;;6.10;1.25;;;;;;;;;;4973681;28;20050;-75
2022/04/05 08:08:36;;;;;;;5.05;1.23;;;;;;;;;;4988676;28;20043;-75
2022/04/05 08:11:02;;;;;;;6.72;2.17;;;;;;;;;;4968153;28;20051;-75
2022/04/05 08:13:28;;;;;;;4.13;1.20;;;;;;;;;;4991909;28;20061;-75
2022/04/05 08:15:55;;;;;;;3.65;1.38;;;;;;;;;;4976804;28;20042;-75
2022/04/05 08:18:21;;;;;;;2.97;1.38;;;;;;;;;;4990399;28;20133;-75
2022/04/05 08:20:47;;;;;;;5.38;1.30;;;;;;;;;;4991693;28;20461;-75
2022/04/05 08:23:13;;;;;;;7.63;1.42;;;;;;;;;;4978467;28;20128;-75
2022/04/05 08:25:39;;;;;;;4.70;1.75;;;;;;;;;;4974383;28;20054;-76
2022/04/05 08:28:05;;;;;;;4.50;1.70;;;;;;;;;;4985167;28;20042;-74
2022/04/05 08:30:32;;;;;;;4.88;1.77;;;;;;;;;;4975460;28;20046;-75
2022/04/05 08:32:58;;;;;;;3.13;1.60;;;;;;;;;;4974983;28;20556;-75
2022/04/05 08:35:24;;;;;;;5.47;1.48;;;;;;;;;;4977166;28;20046;-75
2022/04/05 08:37:51;;;;;;;5.18;2.45;;;;;;;;;;4970754;28;20198;-75
2022/04/05 08:40:18;;;;;;;6.15;1.55;;;;;;;;;;4975566;28;20405;-75
2022/04/05 08:42:46;;;;;;;5.10;1.60;;;;;;;;;;4957973;28;20043;-75
2022/04/05 08:45:13;;;;;;;4.72;1.35;;;;;;;;;;4956282;28;20548;-76
2022/04/05 08:47:59;;;;;;;6.68;1.40;;;;;;;;;;4975797;28;20125;-76
2022/04/05 08:50:28;;;;;;;4.28;1.33;;;;;;;;;;4974040;28;20046;-75
2022/04/05 08:52:55;;;;;;;5.35;1.88;;;;;;;;;;4951409;28;20141;-75
2022/04/05 08:55:24;;;;;;;3.55;1.00;;;;;;;;;;4994689;28;20049;-74
2022/04/05 08:57:50;;;;;;;4.03;1.63;;;;;;;;;;4986699;28;20053;-76
2022/04/05 09:00:19;;;;;;;5.13;1.60;;;;;;;;;;4977792;28;20038;-75
2022/04/05 09:03:02;;;;;;;4.55;1.77;;;;;;;;;;4982923;28;20524;-76
2022/04/05 09:05:29;;;;;;;7.10;1.95;;;;;;;;;;4992518;28;20046;-76
2022/04/05 09:08:11;;;;;;;10.40;2.70;;;;;;;;;;4960104;28;20038;-75
2022/04/05 09:10:37;;;;;;;3.78;1.60;;;;;;;;;;4976020;28;20046;-75
2022/04/05 09:13:03;;;;;;;4.40;1.95;;;;;;;;;;4976157;28;20468;-75
2022/04/05 09:15:29;;;;;;;3.95;2.10;;;;;;;;;;4972254;28;20098;-75
2022/04/05 09:17:55;;;;;;;7.35;2.65;;;;;;;;;;4975142;28;20106;-76
2022/04/05 09:20:26;;;;;;;3.50;1.90;;;;;;;;;;4949929;28;20047;-75
2022/04/05 09:22:54;;;;;;;4.55;1.92;;;;;;;;;;4973668;28;20057;-76
2022/04/05 09:25:20;;;;;;;4.65;1.80;;;;;;;;;;4973986;28;20054;-74
2022/04/05 09:27:46;;;;;;;4.00;1.98;;;;;;;;;;4976385;28;20082;-76
2022/04/05 09:30:16;;;;;;;10.20;2.70;;;;;;;;;;4987650;28;20082;-73
2022/04/05 09:32:47;;;;;;;4.32;2.08;;;;;;;;;;4974282;28;20519;-74
2022/04/05 09:35:13;;;;;;;12.25;3.22;;;;;;;;;;4975638;28;20050;-74
2022/04/05 09:37:39;;;;;;;4.18;2.13;;;;;;;;;;4971591;28;20058;-74
2022/04/05 09:40:23;;;;;;;3.45;2.00;;;;;;;;;;4976321;28;20129;-74
2022/04/05 09:43:08;;;;;;;5.15;2.28;;;;;;;;;;4973643;28;20125;-74
2022/04/05 09:45:50;;;;;;;9.50;2.95;;;;;;;;;;4975470;28;20050;-75
2022/04/05 09:48:17;;;;;;;27.30;6.65;;;;;;;;;;4993832;28;20062;-74
2022/04/05 09:51:02;;;;;;;4.78;1.65;;;;;;;;;;4991443;28;20115;-75
2022/04/05 09:53:50;;;;;;;6.95;2.20;;;;;;;;;;4981600;28;20046;-74
2022/04/05 09:56:16;;;;;;;7.03;2.27;;;;;;;;;;4984975;28;20117;-74
2022/04/05 09:58:50;;;;;;;16.83;4.60;;;;;;;;;;4986531;28;20046;-74
2022/04/05 10:01:17;;;;;;;11.65;2.95;;;;;;;;;;4988298;28;20038;-75
2022/04/05 10:03:43;;;;;;;1.55;1.20;;;;;;;;;;4971868;28;20065;-74
2022/04/05 10:06:09;;;;;;;1.55;1.13;;;;;;;;;;4978361;28;20046;-74
2022/04/05 10:08:37;;;;;;;4.18;1.65;;;;;;;;;;4976792;28;20073;-73
2022/04/05 10:11:04;;;;;;;4.38;1.58;;;;;;;;;;4988415;28;20050;-74
2022/04/05 10:13:30;;;;;;;3.80;1.77;;;;;;;;;;4968300;28;20126;-74
2022/04/05 10:15:57;;;;;;;1.90;1.27;;;;;;;;;;4959466;28;20129;-74
2022/04/05 10:18:24;;;;;;;2.17;1.40;;;;;;;;;;4966049;28;20095;-74
2022/04/05 10:20:50;;;;;;;1.27;1.17;;;;;;;;;;4974558;28;20058;-74
2022/04/05 10:23:22;;;;;;;6.57;2.05;;;;;;;;;;4969162;28;20047;-73
2022/04/05 10:25:52;;;;;;;13.45;3.40;;;;;;;;;;4974316;28;20054;-73
2022/04/05 10:28:20;;;;;;;2.58;1.50;;;;;;;;;;4962856;28;20042;-74
2022/04/05 10:30:55;;;;;;;3.45;1.70;;;;;;;;;;4977450;28;20058;-73
2022/04/05 10:33:25;;;;;;;1.70;1.48;;;;;;;;;;4985529;28;20049;-72
2022/04/05 10:35:54;;;;;;;2.85;1.60;;;;;;;;;;4979036;28;20105;-74
2022/04/05 10:38:20;;;;;;;3.00;1.88;;;;;;;;;;4976104;28;20054;-73
2022/04/05 10:41:04;;;;;;;3.33;2.00;;;;;;;;;;4990829;28;20042;-73
2022/04/05 10:43:30;;;;;;;4.03;2.38;;;;;;;;;;4985266;28;20500;-73
2022/04/05 10:45:56;;;;;;;4.35;2.90;;;;;;;;;;4992046;28;20088;-74
2022/04/05 10:48:27;;;;;;;6.75;3.38;;;;;;;;;;4972763;28;20069;-73
2022/04/05 10:51:02;;;;;;;4.55;3.15;;;;;;;;;;4984833;28;20047;-71
2022/04/05 10:53:34;;;;;;;4.22;2.95;;;;;;;;;;4992404;28;20038;-72
2022/04/05 10:56:07;;;;;;;4.75;2.95;;;;;;;;;;4976635;28;20051;-73
2022/04/05 10:58:41;;;;;;;5.35;3.53;;;;;;;;;;4978749;28;20053;-73
2022/04/05 11:01:18;;;;;;;5.93;4.00;;;;;;;;;;4978881;28;20046;-73
2022/04/05 11:04:03;;;;;;;17.48;5.93;;;;;;;;;;4984275;28;20497;-72
2022/04/05 11:06:29;;;;;;;6.38;4.10;;;;;;;;;;4979316;28;20077;-73
2022/04/05 11:08:58;;;;;;;6.97;4.25;;;;;;;;;;4990939;28;20470;-74
2022/04/05 11:11:25;;;;;;;7.13;4.78;;;;;;;;;;4987037;28;20050;-74
2022/04/05 11:14:01;;;;;;;12.15;5.32;;;;;;;;;;4974449;28;20393;-73
2022/04/05 11:16:28;;;;;;;8.25;4.90;;;;;;;;;;4982927;28;20058;-75
2022/04/05 11:18:58;;;;;;;6.00;4.13;;;;;;;;;;4976540;28;20043;-72
2022/04/05 11:21:24;;;;;;;7.60;4.53;;;;;;;;;;4983814;28;20131;-73
2022/04/05 11:23:51;;;;;;;6.63;4.63;;;;;;;;;;4985742;28;20074;-74
2022/04/05 11:26:24;;;;;;;7.93;4.82;;;;;;;;;;4978817;28;20053;-73
2022/04/05 11:28:50;;;;;;;7.35;4.68;;;;;;;;;;4995786;28;20512;-75
2022/04/05 11:31:28;;;;;;;6.70;4.70;;;;;;;;;;4986208;28;20053;-74
2022/04/05 11:33:54;;;;;;;9.57;5.53;;;;;;;;;;4993139;28;20057;-73
2022/04/05 11:36:23;;;;;;;7.30;4.78;;;;;;;;;;4995194;28;20093;-73
2022/04/05 11:38:58;;;;;;;8.13;4.40;;;;;;;;;;4994885;28;20050;-72
2022/04/05 11:41:31;;;;;;;4.85;4.05;;;;;;;;;;4978585;28;20558;-71
2022/04/05 11:43:56;;;;;;;6.03;3.97;;;;;;;;;;4980965;28;20047;-73
2022/04/05 11:46:27;;;;;;;5.00;3.90;;;;;;;;;;4974332;28;20073;-73
2022/04/05 11:48:54;;;;;;;4.95;3.78;;;;;;;;;;4964024;28;20093;-74
2022/04/05 11:51:22;;;;;;;3.83;2.83;;;;;;;;;;4975148;28;20050;-70
2022/04/05 11:53:48;;;;;;;3.10;2.70;;;;;;;;;;4979909;28;20178;-72
2022/04/05 11:56:14;;;;;;;5.18;3.25;;;;;;;;;;4977001;28;20054;-71
2022/04/05 11:58:46;;;;;;;7.38;3.70;;;;;;;;;;4982723;28;20061;-73
2022/04/05 12:01:13;;;;;;;4.85;3.33;;;;;;;;;;4974813;28;20401;-75
2022/04/05 12:03:44;;;;;;;5.35;3.63;;;;;;;;;;4980836;28;20497;-72
2022/04/05 12:06:10;;;;;;;6.30;3.72;;;;;;;;;;4959670;28;20047;-74
2022/04/05 12:08:37;;;;;;;4.43;3.33;;;;;;;;;;4988384;28;20042;-75
2022/04/05 12:11:04;;;;;;;5.10;3.67;;;;;;;;;;4987809;28;20129;-76
2022/04/05 12:13:31;;;;;;;9.88;4.00;;;;;;;;;;4991217;28;20607;-75
2022/04/05 12:16:00;;;;;;;4.65;3.40;;;;;;;;;;4992679;28;20062;-75
2022/04/05 12:18:28;;;;;;;8.55;4.65;;;;;;;;;;4963922;28;20058;-76
2022/04/05 12:20:57;;;;;;;5.65;4.28;;;;;;;;;;4983125;28;20053;-76
2022/04/05 12:23:27;;;;;;;6.65;4.30;;;;;;;;;;4966018;28;20058;-76
2022/04/05 12:26:04;;;;;;;6.53;3.92;;;;;;;;;;4962461;28;20038;-75
2022/04/05 12:28:30;;;;;;;6.47;4.30;;;;;;;;;;4977235;28;20117;-75
2022/04/05 12:31:18;;;;;;;5.53;3.80;;;;;;;;;;4976817;28;20050;-75
2022/04/05 12:33:53;;;;;;;16.52;5.68;;;;;;;;;;4987073;28;20497;-76
2022/04/05 12:36:20;;;;;;;14.32;4.78;;;;;;;;;;4958454;28;20047;-75
2022/04/05 12:38:46;;;;;;;8.38;4.30;;;;;;;;;;4970478;28;20442;-76
2022/04/05 12:41:21;;;;;;;6.45;3.92;;;;;;;;;;4944940;28;20050;-76
2022/04/05 12:44:03;;;;;;;8.40;4.25;;;;;;;;;;4967445;28;20058;-75
2022/04/05 12:46:35;;;;;;;12.98;5.07;;;;;;;;;;4995432;28;20561;-77
2022/04/05 12:49:38;;;;;;;5.97;4.13;;;;;;;;;;4989722;28;20054;-77
2022/04/05 12:52:07;;;;;;;6.63;4.18;;;;;;;;;;4926229;29;20052;-74
2022/04/05 12:54:34;;;;;;;8.27;4.22;;;;;;;;;;4911053;29;20056;-76
2022/04/05 12:57:20;;;;;;;8.55;4.18;;;;;;;;;;4933662;29;20052;-75
2022/04/05 12:59:48;;;;;;;5.43;3.88;;;;;;;;;;4932703;29;20158;-75
2022/04/05 13:02:19;;;;;;;9.20;4.75;;;;;;;;;;4934894;29;20550;-75
2022/04/05 13:04:45;;;;;;;8.50;4.80;;;;;;;;;;4924858;29;20056;-77
2022/04/05 13:07:11;;;;;;;8.65;5.10;;;;;;;;;;4918223;29;20056;-74
2022/04/05 13:09:40;;;;;;;8.15;4.75;;;;;;;;;;4900043;29;20054;-74
2022/04/05 13:12:12;;;;;;;16.35;6.93;;;;;;;;;;4929234;29;20059;-72
2022/04/05 13:14:38;;;;;;;16.33;6.22;;;;;;;;;;4905981;29;20518;-75
2022/04/05 13:17:05;;;;;;;23.55;7.55;;;;;;;;;;4894604;29;20083;-75
2022/04/05 13:19:31;;;;;;;12.32;5.75;;;;;;;;;;4917117;29;20199;-71
2022/04/05 13:21:58;;;;;;;9.27;4.90;;;;;;;;;;4915271;29;20051;-74
2022/04/05 13:24:38;;;;;;;15.60;5.40;;;;;;;;;;4934733;29;20102;-74
2022/04/05 13:27:05;;;;;;;6.78;4.53;;;;;;;;;;4987859;28;20413;-73
2022/04/05 13:29:31;;;;;;;8.27;4.45;;;;;;;;;;4964709;28;20039;-74
2022/04/05 13:32:00;;;;;;;12.50;5.22;;;;;;;;;;4985827;28;20046;-75
2022/04/05 13:34:26;;;;;;;11.23;4.80;;;;;;;;;;4994763;28;20050;-72
2022/04/05 13:36:54;;;;;;;17.20;6.32;;;;;;;;;;4993461;28;20042;-75
2022/04/05 13:39:21;;;;;;;8.40;4.32;;;;;;;;;;4956803;28;20047;-73
2022/04/05 13:41:47;;;;;;;7.63;4.10;;;;;;;;;;4982586;28;20424;-74
2022/04/05 13:44:13;;;;;;;11.85;4.95;;;;;;;;;;4975449;28;20084;-75
2022/04/05 13:46:40;;;;;;;23.15;7.47;;;;;;;;;;4974932;28;20049;-74
2022/04/05 13:49:07;;;;;;;15.32;6.28;;;;;;;;;;4973578;28;20059;-75
2022/04/05 13:51:34;;;;;;;10.90;4.88;;;;;;;;;;4978175;28;20057;-75
2022/04/05 13:54:00;;;;;;;13.93;5.90;;;;;;;;;;4989638;28;20543;-71
2022/04/05 13:56:27;;;;;;;12.52;6.05;;;;;;;;;;4976004;28;20277;-74
2022/04/05 13:58:55;;;;;;;14.80;6.43;;;;;;;;;;4973325;28;20057;-73
2022/04/05 14:01:21;;;;;;;17.35;6.53;;;;;;;;;;4979064;28;20481;-74
2022/04/05 14:03:47;;;;;;;17.23;7.93;;;;;;;;;;4993113;28;20504;-74
2022/04/05 14:06:16;;;;;;;;;;;;;;;;;;4989924;28;20535;-72
2022/04/05 14:08:43;;;;;;;29.50;11.35;;;;;;;;;;4984540;28;19930;-74
2022/04/05 14:11:09;;;;;;;48.35;13.73;;;;;;;;;;4986690;28;20049;-73
2022/04/05 14:13:35;;;;;;;19.75;8.98;;;;;;;;;;4966870;28;20482;-74
2022/04/05 14:16:01;;;;;;;19.55;9.25;;;;;;;;;;4986132;28;20057;-72
2022/04/05 14:18:27;;;;;;;17.75;9.07;;;;;;;;;;4966538;28;20050;-74
2022/04/05 14:20:53;;;;;;;14.73;7.30;;;;;;;;;;4987321;28;20178;-72
2022/04/05 14:23:19;;;;;;;22.42;9.07;;;;;;;;;;4975268;28;20077;-74
2022/04/05 14:25:45;;;;;;;16.58;8.23;;;;;;;;;;4973463;28;20139;-73
2022/04/05 14:28:12;;;;;;;25.98;9.48;;;;;;;;;;4957643;28;20042;-74
2022/04/05 14:30:38;;;;;;;16.70;8.35;;;;;;;;;;4982286;28;20090;-74
2022/04/05 14:33:04;;;;;;;17.92;8.77;;;;;;;;;;4990335;28;20412;-73
2022/04/05 14:35:30;;;;;;;18.25;8.00;;;;;;;;;;4975537;28;20503;-73
2022/04/05 14:37:56;;;;;;;14.13;7.95;;;;;;;;;;4966497;28;20126;-74
2022/04/05 14:40:22;;;;;;;11.05;7.05;;;;;;;;;;4970130;28;20043;-72
2022/04/05 14:42:48;;;;;;;17.83;8.40;;;;;;;;;;4950742;28;20077;-72
2022/04/05 14:45:14;;;;;;;15.82;8.10;;;;;;;;;;4992343;28;20050;-74